createdAt,value
2022-08-02T00:02:40.927Z,101555.84
2022-08-02T00:05:23.108Z,101555.84
2022-08-02T00:08:12.253Z,101555.06
2022-08-02T00:10:53.060Z,101550.69
2022-08-02T00:13:39.883Z,101552.56
2022-08-02T00:16:21.323Z,101541.91
2022-08-02T00:19:26.405Z,101535.72
2022-08-02T00:22:07.136Z,101537.47
2022-08-02T00:25:00.887Z,101536.53
2022-08-02T00:27:49.477Z,101540.09
2022-08-02T00:30:31.042Z,101538.28
2022-08-02T00:34:05.257Z,101540.84
2022-08-02T00:36:23.897Z,101535.75
2022-08-02T00:39:34.601Z,101534.97
2022-08-02T00:42:13.155Z,101538.50
2022-08-02T00:45:03.046Z,101530.59
2022-08-02T00:47:43.899Z,101532.38
2022-08-02T00:50:33.644Z,101530.59
2022-08-02T00:53:17.911Z,101537.69
2022-08-02T00:56:07.098Z,101537.56
2022-08-02T00:58:48.301Z,101536.69
2022-08-02T01:01:38.726Z,101526.03
2022-08-02T01:04:38.938Z,101531.34
2022-08-02T01:07:27.087Z,101535.00
2022-08-02T01:10:07.935Z,101530.63
2022-08-02T01:12:55.187Z,101523.38
2022-08-02T01:15:36.851Z,101525.16
2022-08-02T01:18:58.021Z,101522.66
2022-08-02T01:21:46.331Z,101520.13
2022-08-02T01:25:03.907Z,101521.09
2022-08-02T01:28:29.035Z,101517.50
2022-08-02T01:31:36.025Z,101507.81
2022-08-02T01:34:49.287Z,101509.63
2022-08-02T01:37:49.584Z,101514.91
2022-08-02T01:40:38.292Z,101504.44
2022-08-02T01:43:20.040Z,101506.28
2022-08-02T01:46:08.318Z,101504.56
2022-08-02T01:48:52.716Z,101500.13
2022-08-02T01:52:00.948Z,101494.84
2022-08-02T01:54:44.030Z,101493.72
2022-08-02T01:57:33.730Z,101483.84
2022-08-02T02:00:24.853Z,101477.88
2022-08-02T02:03:16.951Z,101476.28
2022-08-02T02:06:02.061Z,101473.75
2022-08-02T02:08:50.953Z,101473.84
2022-08-02T02:12:09.654Z,101465.88
2022-08-02T02:14:41.941Z,101468.50
2022-08-02T02:17:52.922Z,101461.38
2022-08-02T02:20:43.689Z,101459.66
2022-08-02T02:23:27.193Z,101473.00
2022-08-02T02:26:31.329Z,101466.06
2022-08-02T02:29:21.083Z,101472.13
2022-08-02T02:32:04.106Z,101453.72
2022-08-02T02:34:58.439Z,101461.56
2022-08-02T02:37:41.476Z,101458.81
2022-08-02T02:40:31.135Z,101459.00
2022-08-02T02:43:14.947Z,101460.56
2022-08-02T02:46:05.036Z,101466.75
2022-08-02T02:48:47.740Z,101461.38
2022-08-02T02:51:36.061Z,101458.81
2022-08-02T02:54:32.083Z,101457.13
2022-08-02T02:57:24.499Z,101458.22
2022-08-02T03:00:06.927Z,101458.09
2022-08-02T03:02:54.099Z,101450.44
2022-08-02T03:05:35.360Z,101446.03
2022-08-02T03:08:22.167Z,101449.59
2022-08-02T03:11:04.494Z,101447.03
2022-08-02T03:13:53.836Z,101449.50
2022-08-02T03:16:36.369Z,101445.25
2022-08-02T03:19:25.125Z,101451.50
2022-08-02T03:22:15.589Z,101444.38
2022-08-02T03:25:08.966Z,101449.88
2022-08-02T03:27:59.544Z,101444.88
2022-08-02T03:30:41.756Z,101449.22
2022-08-02T03:33:31.404Z,101441.47
2022-08-02T03:36:20.085Z,101443.38
2022-08-02T03:39:08.982Z,101446.19
2022-08-02T03:41:51.193Z,101442.63
2022-08-02T03:44:39.993Z,101434.72
2022-08-02T03:47:21.134Z,101444.38
2022-08-02T03:50:09.372Z,101436.47
2022-08-02T03:52:53.580Z,101451.41
2022-08-02T03:55:44.059Z,101442.56
2022-08-02T03:58:27.138Z,101444.31
2022-08-02T04:01:14.138Z,101445.19
2022-08-02T04:03:55.930Z,101446.94
2022-08-02T04:06:47.043Z,101442.56
2022-08-02T04:09:28.114Z,101443.94
2022-08-02T04:12:15.797Z,101442.16
2022-08-02T04:14:58.189Z,101443.94
2022-08-02T04:17:51.394Z,101450.25
2022-08-02T04:20:36.204Z,101450.25
2022-08-02T04:23:26.920Z,101445.16
2022-08-02T04:26:19.061Z,101440.06
2022-08-02T04:29:08.417Z,101443.59
2022-08-02T04:31:59.172Z,101433.22
2022-08-02T04:34:41.098Z,101439.28
2022-08-02T04:37:28.537Z,101435.69
2022-08-02T04:40:09.425Z,101438.94
2022-08-02T04:42:57.211Z,101443.38
2022-08-02T04:45:38.811Z,101444.31
2022-08-02T04:48:28.452Z,101440.03
2022-08-02T04:51:09.037Z,101450.69
2022-08-02T04:53:56.161Z,101447.16
2022-08-02T04:56:51.394Z,101448.91
2022-08-02T04:59:39.210Z,101449.00
2022-08-02T05:02:23.038Z,101456.44
2022-08-02T05:05:11.159Z,101458.94
2022-08-02T05:07:52.821Z,101455.00
2022-08-02T05:10:43.507Z,101451.88
2022-08-02T05:13:24.051Z,101450.38
2022-08-02T05:16:13.238Z,101453.50
2022-08-02T05:18:54.073Z,101457.72
2022-08-02T05:21:42.318Z,101458.44
2022-08-02T05:24:23.079Z,101460.19
2022-08-02T05:27:16.446Z,101459.22
2022-08-02T05:30:02.949Z,101461.16
2022-08-02T05:32:57.767Z,101466.69
2022-08-02T05:35:38.472Z,101469.59
2022-08-02T05:38:26.426Z,101473.59
2022-08-02T05:41:08.180Z,101473.81
2022-08-02T05:43:56.653Z,101475.50
2022-08-02T05:46:38.060Z,101479.34
2022-08-02T05:49:32.191Z,101467.72
2022-08-02T05:52:25.264Z,101471.63
2022-08-02T05:55:18.391Z,101472.13
2022-08-02T05:58:31.110Z,101466.13
2022-08-02T06:01:24.243Z,101481.97
2022-08-02T06:04:07.088Z,101477.78
2022-08-02T06:07:07.419Z,101481.19
2022-08-02T06:09:50.092Z,101481.94
2022-08-02T06:12:46.810Z,101478.09
2022-08-02T06:15:28.103Z,101483.59
2022-08-02T06:18:16.615Z,101479.00
2022-08-02T06:20:58.083Z,101477.63
2022-08-02T06:23:58.694Z,101472.81
2022-08-02T06:26:55.255Z,101490.03
2022-08-02T06:29:44.440Z,101478.28
2022-08-02T06:32:27.387Z,101481.72
2022-08-02T06:35:17.205Z,101476.97
2022-08-02T06:37:59.977Z,101480.91
2022-08-02T06:41:13.802Z,101479.03
2022-08-02T06:44:41.998Z,101469.00
2022-08-02T06:47:15.199Z,101472.66
2022-08-02T06:49:56.597Z,101475.44
2022-08-02T06:52:46.532Z,101475.56
2022-08-02T06:55:27.503Z,101477.28
2022-08-02T06:58:15.243Z,101477.28
2022-08-02T07:00:58.116Z,101471.69
2022-08-02T07:03:48.252Z,101474.69
2022-08-02T07:06:30.337Z,101474.44
2022-08-02T07:09:21.612Z,101471.72
2022-08-02T07:12:05.383Z,101473.78
2022-08-02T07:14:54.160Z,101458.47
2022-08-02T07:17:36.880Z,101469.75
2022-08-02T07:20:24.326Z,101467.44
2022-08-02T07:23:06.540Z,101478.06
2022-08-02T07:26:05.359Z,101478.25
2022-08-02T07:28:54.393Z,101475.38
2022-08-02T07:31:36.313Z,101467.47
2022-08-02T07:34:24.371Z,101467.91
2022-08-02T07:37:12.518Z,101476.75
2022-08-02T07:40:20.352Z,101465.59
2022-08-02T07:43:04.227Z,101465.59
2022-08-02T07:45:55.867Z,101468.59
2022-08-02T07:48:42.763Z,101469.31
2022-08-02T07:51:31.149Z,101471.16
2022-08-02T07:54:12.281Z,101467.72
2022-08-02T07:57:07.176Z,101471.84
2022-08-02T07:59:50.829Z,101473.25
2022-08-02T08:02:39.373Z,101471.19
2022-08-02T08:05:21.259Z,101471.47
2022-08-02T08:08:15.068Z,101469.16
2022-08-02T08:10:59.196Z,101474.94
2022-08-02T08:13:50.018Z,101469.72
2022-08-02T08:16:31.280Z,101468.03
2022-08-02T08:19:18.930Z,101466.97
2022-08-02T08:22:01.865Z,101464.53
2022-08-02T08:24:49.049Z,101459.34
2022-08-02T08:27:38.300Z,101462.91
2022-08-02T08:30:19.557Z,101460.03
2022-08-02T08:33:08.327Z,101459.25
2022-08-02T08:35:50.380Z,101455.34
2022-08-02T08:38:40.276Z,101463.91
2022-08-02T08:41:23.212Z,101464.44
2022-08-02T08:44:11.699Z,101460.91
2022-08-02T08:46:55.966Z,101459.13
2022-08-02T08:49:52.658Z,101464.03
2022-08-02T08:52:34.975Z,101461.53
2022-08-02T08:55:25.540Z,101462.28
2022-08-02T08:58:09.542Z,101454.13
2022-08-02T09:00:57.373Z,101458.72
2022-08-02T09:03:38.968Z,101456.41
2022-08-02T09:06:32.389Z,101461.13
2022-08-02T09:09:14.332Z,101460.13
2022-08-02T09:12:01.347Z,101453.66
2022-08-02T09:14:42.223Z,101448.78
2022-08-02T09:17:30.348Z,101447.47
2022-08-02T09:20:15.649Z,101448.22
2022-08-02T09:23:18.846Z,101444.50
2022-08-02T09:26:19.600Z,101449.81
2022-08-02T09:29:11.276Z,101439.09
2022-08-02T09:31:53.340Z,101435.63
2022-08-02T09:35:00.509Z,101437.94
2022-08-02T09:37:42.833Z,101434.66
2022-08-02T09:40:42.617Z,101444.94
2022-08-02T09:43:24.231Z,101443.38
2022-08-02T09:46:25.488Z,101437.44
2022-08-02T09:49:22.330Z,101444.84
2022-08-02T09:52:11.587Z,101443.66
2022-08-02T09:54:52.999Z,101438.94
2022-08-02T09:57:40.383Z,101442.94
2022-08-02T10:00:37.013Z,101439.75
2022-08-02T10:03:35.062Z,101438.16
2022-08-02T10:06:17.363Z,101444.41
2022-08-02T10:09:06.411Z,101442.75
2022-08-02T10:11:47.268Z,101439.59
2022-08-02T10:14:35.614Z,101436.22
2022-08-02T10:17:22.245Z,101436.50
2022-08-02T10:20:11.401Z,101433.00
2022-08-02T10:22:52.430Z,101428.81
2022-08-02T10:25:45.423Z,101423.84
2022-08-02T10:28:38.247Z,101434.09
2022-08-02T10:31:22.407Z,101422.06
2022-08-02T10:34:17.404Z,101421.47
2022-08-02T10:37:01.342Z,101416.56
2022-08-02T10:39:52.825Z,101414.38
2022-08-02T10:42:54.473Z,101415.22
2022-08-02T10:49:43.683Z,101422.13
2022-08-02T10:52:36.279Z,101414.06
2022-08-02T10:55:22.134Z,101416.28
2022-08-02T10:58:35.194Z,101404.06
2022-08-02T11:01:52.165Z,101399.81
2022-08-02T11:04:52.546Z,101394.16
2022-08-02T11:07:50.378Z,101399.00
2022-08-02T11:10:46.271Z,101393.25
2022-08-02T11:13:28.624Z,101390.41
2022-08-02T11:16:17.838Z,101380.13
2022-08-02T11:18:58.381Z,101373.94
2022-08-02T11:21:48.523Z,101376.84
2022-08-02T11:24:37.446Z,101380.31
2022-08-02T11:27:27.293Z,101380.34
2022-08-02T11:30:19.489Z,101379.34
2022-08-02T11:33:13.317Z,101385.13
2022-08-02T11:35:57.555Z,101378.09
2022-08-02T11:38:44.312Z,101373.66
2022-08-02T11:41:45.888Z,101378.81
2022-08-02T11:44:36.318Z,101373.38
2022-08-02T11:47:20.071Z,101368.22
2022-08-02T11:50:17.168Z,101365.25
2022-08-02T11:52:59.419Z,101368.03
2022-08-02T11:55:46.334Z,101357.53
2022-08-02T11:58:27.564Z,101359.28
2022-08-02T12:01:16.327Z,101353.06
2022-08-02T12:04:03.509Z,101342.88
2022-08-02T12:06:51.070Z,101349.31
2022-08-02T12:09:40.736Z,101341.78
2022-08-02T12:12:30.237Z,101335.59
2022-08-02T12:15:11.444Z,101334.50
2022-08-02T12:18:18.326Z,101331.53
2022-08-02T12:21:02.588Z,101326.88
2022-08-02T12:23:59.812Z,101332.72
2022-08-02T12:26:59.309Z,101326.59
2022-08-02T12:29:55.885Z,101322.78
2022-08-02T12:32:40.988Z,101321.66
2022-08-02T12:35:28.338Z,101323.16
2022-08-02T12:38:17.419Z,101314.53
2022-08-02T12:41:30.230Z,101315.16
2022-08-02T12:44:12.746Z,101306.06
2022-08-02T12:47:12.352Z,101304.81
2022-08-02T12:49:53.460Z,101305.78
2022-08-02T12:52:41.455Z,101302.44
2022-08-02T12:56:02.544Z,101303.81
2022-08-02T12:58:56.736Z,101300.38
2022-08-02T13:01:37.512Z,101299.63
2022-08-02T13:04:25.842Z,101293.31
2022-08-02T13:07:07.330Z,101292.59
2022-08-02T13:10:02.671Z,101287.69
2022-08-02T13:12:44.462Z,101285.00
2022-08-02T13:15:49.898Z,101281.44
2022-08-02T13:18:33.257Z,101271.69
2022-08-02T13:21:40.752Z,101266.16
2022-08-02T13:24:38.693Z,101263.19
2022-08-02T13:27:36.484Z,101257.88
2022-08-02T13:30:24.501Z,101244.59
2022-08-02T13:33:05.770Z,101249.75
2022-08-02T13:35:55.457Z,101244.94
2022-08-02T13:38:36.369Z,101240.28
2022-08-02T13:41:25.617Z,101238.69
2022-08-02T13:44:10.514Z,101238.94
2022-08-02T13:46:58.518Z,101244.59
2022-08-02T13:49:51.197Z,101239.53
2022-08-02T13:52:41.293Z,101238.44
2022-08-02T13:55:25.762Z,101231.53
2022-08-02T13:58:14.535Z,101233.53
2022-08-02T14:00:55.395Z,101236.91
2022-08-02T14:04:08.024Z,101226.09
2022-08-02T14:06:44.444Z,101223.38
2022-08-02T14:09:33.631Z,101221.25
2022-08-02T14:12:17.601Z,101210.03
2022-08-02T14:15:04.694Z,101208.78
2022-08-02T14:17:46.425Z,101201.22
2022-08-02T14:20:34.508Z,101184.81
2022-08-02T14:23:15.791Z,101189.47
2022-08-02T14:26:05.543Z,101194.63
2022-08-02T14:28:53.265Z,101184.53
2022-08-02T14:31:37.975Z,101181.28
2022-08-02T14:34:31.298Z,101184.72
2022-08-02T14:37:12.593Z,101184.50
2022-08-02T14:40:01.201Z,101179.50
2022-08-02T14:42:42.580Z,101172.06
2022-08-02T14:45:39.992Z,101177.09
2022-08-02T14:48:22.583Z,101166.38
2022-08-02T14:51:10.543Z,101163.19
2022-08-02T14:54:02.861Z,101159.00
2022-08-02T14:56:57.441Z,101159.00
2022-08-02T14:59:42.612Z,101158.53
2022-08-02T15:02:29.407Z,101157.22
2022-08-02T15:05:10.523Z,101147.75
2022-08-02T15:07:59.422Z,101151.78
2022-08-02T15:10:41.093Z,101147.88
2022-08-02T15:13:27.416Z,101142.53
2022-08-02T15:16:08.542Z,101143.38
2022-08-02T15:18:55.445Z,101142.16
2022-08-02T15:21:41.464Z,101135.09
2022-08-02T15:24:29.437Z,101128.53
2022-08-02T15:27:24.416Z,101135.47
2022-08-02T15:30:15.442Z,101121.94
2022-08-02T15:32:58.217Z,101130.91
2022-08-02T15:35:46.506Z,101127.28
2022-08-02T15:38:30.583Z,101122.88
2022-08-02T15:41:20.817Z,101121.88
2022-08-02T15:44:01.995Z,101122.69
2022-08-02T15:46:48.464Z,101118.81
2022-08-02T15:49:29.598Z,101103.28
2022-08-02T15:52:18.612Z,101103.31
2022-08-02T15:55:07.022Z,101091.31
2022-08-02T15:57:55.456Z,101097.75
2022-08-02T16:00:36.577Z,101096.25
2022-08-02T16:03:25.833Z,101088.25
2022-08-02T16:06:06.605Z,101091.03
2022-08-02T16:08:56.356Z,101086.25
2022-08-02T16:11:38.560Z,101081.81
2022-08-02T16:14:28.243Z,101088.44
2022-08-02T16:17:10.487Z,101087.94
2022-08-02T16:19:57.942Z,101084.53
2022-08-02T16:22:38.748Z,101075.94
2022-08-02T16:25:29.310Z,101071.75
2022-08-02T16:28:19.055Z,101070.91
2022-08-02T16:31:10.360Z,101078.38
2022-08-02T16:33:58.571Z,101072.13
2022-08-02T16:36:39.852Z,101070.91
2022-08-02T16:39:28.440Z,101072.75
2022-08-02T16:42:12.000Z,101071.03
2022-08-02T16:45:03.584Z,101066.25
2022-08-02T16:47:57.478Z,101059.13
2022-08-02T16:50:48.454Z,101067.75
2022-08-02T16:53:37.174Z,101056.19
2022-08-02T16:56:26.823Z,101049.91
2022-08-02T16:59:07.510Z,101058.03
2022-08-02T17:05:01.492Z,101057.59
2022-08-02T17:08:15.237Z,101051.44
2022-08-02T17:10:54.870Z,101054.03
2022-08-02T17:13:43.783Z,101037.56
2022-08-02T17:16:26.592Z,101044.56
2022-08-02T17:19:14.595Z,101039.28
2022-08-02T17:21:55.526Z,101034.81
2022-08-02T17:24:46.016Z,101036.78
2022-08-02T17:27:37.032Z,101042.88
2022-08-02T17:30:26.936Z,101035.66
2022-08-02T17:33:15.549Z,101037.38
2022-08-02T17:35:58.475Z,101036.50
2022-08-02T17:38:50.180Z,101035.28
2022-08-02T17:44:43.033Z,101032.72
2022-08-02T17:47:31.433Z,101031.47
2022-08-02T17:50:32.288Z,101024.00
2022-08-02T17:53:13.631Z,101014.69
2022-08-02T17:56:01.534Z,101019.47
2022-08-02T17:58:51.919Z,101018.97
2022-08-02T18:01:52.942Z,101024.72
2022-08-02T18:04:38.003Z,101018.56
2022-08-02T18:07:25.555Z,101016.72
2022-08-02T18:10:24.680Z,101013.94
2022-08-02T18:13:13.920Z,101017.13
2022-08-02T18:15:59.094Z,101012.94
2022-08-02T18:18:47.941Z,101011.94
2022-08-02T18:21:35.020Z,101011.56
2022-08-02T18:24:24.068Z,101011.66
2022-08-02T18:27:17.566Z,101008.75
2022-08-02T18:30:07.549Z,100998.06
2022-08-02T18:33:57.104Z,101005.13
2022-08-02T18:35:55.945Z,100999.94
2022-08-02T18:38:36.691Z,101006.22
2022-08-02T18:41:24.941Z,100995.53
2022-08-02T18:44:08.025Z,100995.88
2022-08-02T18:46:56.957Z,100992.53
2022-08-02T18:49:46.607Z,100995.31
2022-08-02T18:52:47.567Z,101009.31
2022-08-02T18:56:00.211Z,101005.53
2022-08-02T18:58:46.972Z,101001.38
2022-08-02T19:01:39.488Z,101008.94
2022-08-02T19:04:29.579Z,101003.59
2022-08-02T19:07:18.695Z,100998.03
2022-08-02T19:10:04.606Z,101002.59
2022-08-02T19:12:52.684Z,101012.06
2022-08-02T19:15:35.563Z,101011.41
2022-08-02T19:18:26.685Z,101016.19
2022-08-02T19:21:07.595Z,101013.88
2022-08-02T19:23:58.774Z,101019.13
2022-08-02T19:26:39.988Z,101023.31
2022-08-02T19:29:48.614Z,101014.81
2022-08-02T19:32:42.620Z,101022.69
2022-08-02T19:36:01.965Z,101018.78
2022-08-02T19:38:43.998Z,101013.59
2022-08-02T19:41:48.108Z,101023.28
2022-08-02T19:44:33.641Z,101020.84
2022-08-02T19:47:21.725Z,101020.44
2022-08-02T19:50:02.740Z,101032.47
2022-08-02T19:52:49.933Z,101034.09
2022-08-02T19:56:01.623Z,101034.34
2022-08-02T19:58:44.965Z,101044.75
2022-08-02T20:01:37.330Z,101060.56
2022-08-02T20:04:29.284Z,101067.03
2022-08-02T20:07:11.630Z,101073.19
2022-08-02T20:10:01.751Z,101075.94
2022-08-02T20:12:46.651Z,101093.44
2022-08-02T20:15:55.832Z,101089.28
2022-08-02T20:18:38.636Z,101087.22
2022-08-02T20:21:35.613Z,101093.19
2022-08-02T20:24:20.036Z,101098.69
2022-08-02T20:27:23.019Z,101092.94
2022-08-02T20:30:11.726Z,101099.25
2022-08-02T20:32:58.856Z,101109.88
2022-08-02T20:36:02.415Z,101115.66
2022-08-02T20:38:44.523Z,101122.03
2022-08-02T20:41:37.184Z,101116.38
2022-08-02T20:44:30.756Z,101123.38
2022-08-02T20:47:19.647Z,101111.47
2022-08-02T20:50:39.672Z,101119.25
2022-08-02T20:53:29.969Z,101122.84
2022-08-02T20:56:12.689Z,101130.50
2022-08-02T20:59:03.665Z,101123.41
2022-08-02T21:01:56.859Z,101127.13
2022-08-02T21:04:52.772Z,101124.44
2022-08-02T21:07:34.751Z,101119.03
2022-08-02T21:10:25.773Z,101116.44
2022-08-02T21:13:18.905Z,101113.75
2022-08-02T21:16:16.340Z,101120.69
2022-08-02T21:19:00.522Z,101117.00
2022-08-02T21:21:49.791Z,101112.38
2022-08-02T21:24:31.293Z,101109.13
2022-08-02T21:27:52.131Z,101122.63
2022-08-02T21:30:32.762Z,101114.25
2022-08-02T21:33:17.886Z,101118.06
2022-08-02T21:36:11.912Z,101120.72
2022-08-02T21:38:57.684Z,101121.34
2022-08-02T21:41:47.806Z,101129.72
2022-08-02T21:44:29.587Z,101125.81
2022-08-02T21:47:25.288Z,101129.53
2022-08-02T21:50:13.686Z,101128.50
2022-08-02T21:53:06.769Z,101125.69
2022-08-02T21:56:02.493Z,101117.94
2022-08-02T21:58:51.988Z,101123.72
2022-08-02T22:01:34.271Z,101130.91
2022-08-02T22:04:21.824Z,101128.91
2022-08-02T22:07:02.926Z,101123.22
2022-08-02T22:09:54.078Z,101123.41
2022-08-02T22:12:36.701Z,101128.38
2022-08-02T22:15:25.796Z,101124.69
2022-08-02T22:18:17.068Z,101127.69
2022-08-02T22:21:20.578Z,101133.38
2022-08-02T22:24:04.108Z,101121.31
2022-08-02T22:27:00.802Z,101124.97
2022-08-02T22:29:50.686Z,101127.06
2022-08-02T22:32:50.924Z,101116.72
2022-08-02T22:35:39.775Z,101121.53
2022-08-02T22:38:21.822Z,101126.56
2022-08-02T22:41:13.941Z,101117.16
2022-08-02T22:43:55.348Z,101117.59
2022-08-02T22:46:43.087Z,101121.84
2022-08-02T22:49:39.111Z,101117.31
2022-08-02T22:52:30.780Z,101132.06
2022-08-02T22:55:16.156Z,101119.22
2022-08-02T22:58:06.106Z,101122.72
2022-08-02T22:58:49.062Z,101028.16
2022-08-02T22:58:49.595Z,101061.25
2022-08-02T23:00:46.877Z,101112.94
2022-08-02T23:03:34.109Z,101112.53
2022-08-02T23:06:17.510Z,101122.19
2022-08-02T23:09:05.054Z,101120.44
2022-08-02T23:11:45.869Z,101122.56
2022-08-02T23:14:36.178Z,101124.38
2022-08-02T23:17:35.661Z,101126.56
2022-08-02T23:20:24.507Z,101120.56
2022-08-02T23:23:11.520Z,101126.03
2022-08-02T23:25:59.727Z,101123.97
2022-08-02T23:28:49.389Z,101120.56
2022-08-02T23:31:41.787Z,101121.66
2022-08-02T23:34:29.867Z,101117.13
2022-08-02T23:37:11.734Z,101114.91
2022-08-02T23:39:59.892Z,101110.88
2022-08-02T23:42:41.519Z,101111.13
2022-08-02T23:45:34.960Z,101119.38
2022-08-02T23:48:19.537Z,101111.31
2022-08-02T23:51:09.303Z,101108.66
2022-08-02T23:53:57.495Z,101110.53
2022-08-02T23:56:46.899Z,101109.03
2022-08-02T23:59:27.743Z,101114.75
